createdAt,value
2022-12-11T00:02:05.909Z,-1.11
2022-12-11T00:04:32.870Z,-1.38
2022-12-11T00:06:59.581Z,-1.56
2022-12-11T00:09:26.265Z,-0.68
2022-12-11T00:11:53.193Z,-0.57
2022-12-11T00:14:19.949Z,-0.64
2022-12-11T00:16:48.750Z,-0.54
2022-12-11T00:19:15.980Z,-0.51
2022-12-11T00:21:42.696Z,-0.50
2022-12-11T00:24:09.830Z,-0.51
2022-12-11T00:26:36.466Z,-0.68
2022-12-11T00:29:05.582Z,-0.95
2022-12-11T00:31:32.354Z,-1.59
2022-12-11T00:33:59.010Z,-1.69
2022-12-11T00:36:27.162Z,-1.60
2022-12-11T00:38:54.134Z,-0.48
2022-12-11T00:41:21.385Z,-1.16
2022-12-11T00:43:48.581Z,-1.46
2022-12-11T00:46:16.272Z,-0.72
2022-12-11T00:48:43.002Z,-0.77
2022-12-11T00:51:10.727Z,-0.77
2022-12-11T00:53:38.795Z,-1.37
2022-12-11T00:56:17.478Z,-1.02
2022-12-11T00:58:45.473Z,-1.54
2022-12-11T01:01:16.410Z,-0.87
2022-12-11T01:03:43.153Z,-0.97
2022-12-11T01:06:17.495Z,-1.07
2022-12-11T01:08:45.506Z,-0.70
2022-12-11T01:11:14.398Z,-1.86
2022-12-11T01:13:42.368Z,-0.90
2022-12-11T01:16:14.654Z,-1.31
2022-12-11T01:18:42.250Z,-0.86
2022-12-11T01:21:12.454Z,-1.24
2022-12-11T01:23:39.901Z,-1.70
2022-12-11T01:26:12.437Z,-0.86
2022-12-11T01:28:40.164Z,-1.56
2022-12-11T01:31:15.051Z,-1.82
2022-12-11T01:33:41.974Z,-1.19
2022-12-11T01:36:21.142Z,-1.03
2022-12-11T01:38:49.468Z,-1.42
2022-12-11T01:41:18.147Z,-0.84
2022-12-11T01:44:15.562Z,-0.88
2022-12-11T01:46:43.037Z,-1.24
2022-12-11T01:49:13.556Z,-0.82
2022-12-11T01:51:46.043Z,-0.76
2022-12-11T01:54:15.092Z,-0.82
2022-12-11T01:56:44.985Z,-1.31
2022-12-11T01:59:15.072Z,-1.44
2022-12-11T02:01:46.476Z,-0.89
2022-12-11T02:04:15.700Z,-1.07
2022-12-11T02:06:46.725Z,-1.01
2022-12-11T02:09:16.709Z,-0.82
2022-12-11T02:12:04.863Z,-0.92
2022-12-11T02:14:37.328Z,-0.90
2022-12-11T02:17:32.486Z,-0.97
2022-12-11T02:20:02.124Z,-1.01
2022-12-11T02:22:40.887Z,-1.01
2022-12-11T02:25:19.434Z,-0.99
2022-12-11T02:27:56.646Z,-0.99
2022-12-11T02:30:24.784Z,-0.95
2022-12-11T02:32:57.029Z,-1.44
2022-12-11T02:35:39.947Z,-1.90
2022-12-11T02:38:15.322Z,-1.03
2022-12-11T02:40:43.199Z,-1.60
2022-12-11T02:43:13.071Z,-0.87
2022-12-11T02:45:41.931Z,-1.30
2022-12-11T02:48:11.252Z,-0.62
2022-12-11T02:50:42.901Z,-0.64
2022-12-11T02:53:13.227Z,-1.75
2022-12-11T02:55:41.207Z,-0.79
2022-12-11T02:58:26.747Z,-0.86
2022-12-11T03:00:53.556Z,-1.06
2022-12-11T03:03:20.186Z,-1.54
2022-12-11T03:05:47.535Z,-0.99
2022-12-11T03:08:17.449Z,-1.02
2022-12-11T03:10:45.760Z,-1.67
2022-12-11T03:13:17.101Z,-0.95
2022-12-11T03:16:11.295Z,-1.80
2022-12-11T03:18:47.601Z,-1.10
2022-12-11T03:21:26.218Z,-1.14
2022-12-11T03:24:03.479Z,-1.65
2022-12-11T03:26:35.185Z,-1.35
2022-12-11T03:29:15.413Z,-1.04
2022-12-11T03:32:08.894Z,-2.43
2022-12-11T03:34:44.261Z,-1.03
2022-12-11T03:37:14.151Z,-1.36
2022-12-11T03:39:46.381Z,-0.76
2022-12-11T03:42:16.543Z,-0.83
2022-12-11T03:44:49.399Z,-0.84
2022-12-11T03:47:22.564Z,-0.76
2022-12-11T03:49:51.551Z,-1.11
2022-12-11T03:52:19.639Z,-0.79
2022-12-11T03:54:50.800Z,-0.82
2022-12-11T03:57:21.970Z,-1.24
2022-12-11T03:59:49.892Z,-0.96
2022-12-11T04:02:16.677Z,-0.72
2022-12-11T04:04:43.650Z,-1.58
2022-12-11T04:07:10.265Z,-1.26
2022-12-11T04:09:37.479Z,-1.17
2022-12-11T04:12:04.301Z,-1.24
2022-12-11T04:14:49.850Z,-2.64
2022-12-11T04:17:36.517Z,-2.08
2022-12-11T04:20:23.532Z,-1.05
2022-12-11T04:23:08.810Z,-1.72
2022-12-11T04:25:35.562Z,-1.83
2022-12-11T04:28:02.186Z,-1.09
2022-12-11T04:30:33.976Z,-1.30
2022-12-11T04:33:01.476Z,-1.26
2022-12-11T04:35:28.653Z,-1.97
2022-12-11T04:37:55.554Z,-1.09
2022-12-11T04:40:22.949Z,-1.04
2022-12-11T04:42:49.640Z,-1.59
2022-12-11T04:45:16.559Z,-0.99
2022-12-11T04:47:43.290Z,-1.91
2022-12-11T04:50:12.122Z,-2.10
2022-12-11T04:52:39.066Z,-1.01
2022-12-11T04:55:07.201Z,-1.01
2022-12-11T04:57:34.286Z,-1.77
2022-12-11T05:00:01.966Z,-1.80
2022-12-11T05:02:28.730Z,-1.29
2022-12-11T05:04:55.386Z,-2.27
2022-12-11T05:07:22.027Z,-1.04
2022-12-11T05:09:51.565Z,-2.23
2022-12-11T05:12:18.182Z,-1.13
2022-12-11T05:14:44.797Z,-2.33
2022-12-11T05:17:11.526Z,-1.86
2022-12-11T05:19:38.065Z,-1.56
2022-12-11T05:22:04.647Z,-1.19
2022-12-11T05:24:31.344Z,-2.29
2022-12-11T05:26:57.982Z,-1.68
2022-12-11T05:29:24.549Z,-2.32
2022-12-11T05:31:51.403Z,-2.25
2022-12-11T05:34:18.022Z,-1.30
2022-12-11T05:36:44.631Z,-1.30
2022-12-11T05:39:11.973Z,-1.30
2022-12-11T05:41:38.845Z,-1.56
2022-12-11T05:44:05.732Z,-1.30
2022-12-11T05:46:32.486Z,-1.75
2022-12-11T05:49:01.212Z,-1.76
2022-12-11T05:51:29.628Z,-1.31
2022-12-11T05:53:57.673Z,-1.25
2022-12-11T05:56:30.419Z,-1.26
2022-12-11T05:58:57.941Z,-1.26
2022-12-11T06:01:31.211Z,-1.30
2022-12-11T06:03:59.083Z,-1.56
2022-12-11T06:06:27.065Z,-1.39
2022-12-11T06:08:55.019Z,-1.66
2022-12-11T06:11:24.317Z,-2.12
2022-12-11T06:13:52.066Z,-1.28
2022-12-11T06:16:19.967Z,-1.26
2022-12-11T06:18:47.406Z,-1.33
2022-12-11T06:21:25.918Z,-1.41
2022-12-11T06:23:54.450Z,-1.32
2022-12-11T06:26:21.649Z,-1.24
2022-12-11T06:28:49.155Z,-2.04
2022-12-11T06:31:16.880Z,-1.41
2022-12-11T06:33:43.993Z,-1.92
2022-12-11T06:36:13.511Z,-1.59
2022-12-11T06:38:40.550Z,-1.31
2022-12-11T06:41:08.653Z,-2.09
2022-12-11T06:43:37.263Z,-1.09
2022-12-11T06:46:08.736Z,-1.02
2022-12-11T06:48:35.925Z,-2.25
2022-12-11T06:51:12.416Z,-1.40
2022-12-11T06:53:39.969Z,-2.09
2022-12-11T06:56:10.222Z,-1.78
2022-12-11T06:58:38.257Z,-1.45
2022-12-11T07:01:12.678Z,-1.25
2022-12-11T07:03:39.480Z,-1.24
2022-12-11T07:06:06.455Z,-1.19
2022-12-11T07:08:33.718Z,-1.08
2022-12-11T07:11:10.281Z,-2.30
2022-12-11T07:13:37.487Z,-1.67
2022-12-11T07:16:10.614Z,-1.79
2022-12-11T07:18:41.720Z,-3.26
2022-12-11T07:21:10.492Z,-1.33
2022-12-11T07:23:38.302Z,-1.25
2022-12-11T07:26:10.098Z,-1.15
2022-12-11T07:28:37.424Z,-1.30
2022-12-11T07:31:08.355Z,-1.16
2022-12-11T07:33:35.335Z,-1.73
2022-12-11T07:36:07.661Z,-2.53
2022-12-11T07:38:34.493Z,-1.27
2022-12-11T07:41:03.070Z,-1.06
2022-12-11T07:43:29.806Z,-1.15
2022-12-11T07:46:03.355Z,-1.67
2022-12-11T07:48:30.188Z,-2.88
2022-12-11T07:50:56.849Z,-1.58
2022-12-11T07:53:23.792Z,-1.48
2022-12-11T07:55:50.906Z,-1.54
2022-12-11T07:58:17.534Z,-1.15
2022-12-11T08:00:45.356Z,-2.83
2022-12-11T08:03:12.416Z,-0.99
2022-12-11T08:05:39.071Z,-0.91
2022-12-11T08:08:05.828Z,-1.53
2022-12-11T08:10:32.515Z,-1.61
2022-12-11T08:12:59.469Z,-0.87
2022-12-11T08:15:26.105Z,-1.41
2022-12-11T08:17:52.759Z,-0.88
2022-12-11T08:20:19.429Z,-0.90
2022-12-11T08:22:46.191Z,-0.89
2022-12-11T08:25:13.873Z,-0.92
2022-12-11T08:27:40.666Z,-1.29
2022-12-11T08:30:07.935Z,-1.16
2022-12-11T08:32:35.245Z,-1.34
2022-12-11T08:35:02.013Z,-1.14
2022-12-11T08:37:29.606Z,-0.88
2022-12-11T08:39:56.325Z,-0.90
2022-12-11T08:42:22.977Z,-0.95
2022-12-11T08:44:50.227Z,-1.25
2022-12-11T08:47:17.004Z,-1.09
2022-12-11T08:49:43.777Z,-0.74
2022-12-11T08:52:11.757Z,-0.76
2022-12-11T08:54:38.588Z,-1.23
2022-12-11T08:57:05.416Z,-1.95
2022-12-11T08:59:32.184Z,-1.17
2022-12-11T09:01:58.972Z,-2.35
2022-12-11T09:04:25.681Z,-0.88
2022-12-11T09:06:52.403Z,-0.87
2022-12-11T09:09:19.147Z,-1.40
2022-12-11T09:11:45.784Z,-0.96
2022-12-11T09:14:12.440Z,-2.08
2022-12-11T09:16:40.699Z,-1.40
2022-12-11T09:19:11.649Z,-0.86
2022-12-11T09:21:38.539Z,-1.02
2022-12-11T09:24:05.489Z,-3.84
2022-12-11T09:26:32.090Z,-1.52
2022-12-11T09:28:59.129Z,-1.31
2022-12-11T09:31:28.988Z,-2.62
2022-12-11T09:33:57.841Z,-1.79
2022-12-11T09:36:25.254Z,-1.32
2022-12-11T09:38:52.960Z,-2.19
2022-12-11T09:41:22.495Z,-1.21
2022-12-11T09:44:01.670Z,-1.10
2022-12-11T09:46:33.762Z,-1.46
2022-12-11T09:49:03.703Z,-1.11
2022-12-11T09:51:37.466Z,-1.64
2022-12-11T09:54:04.956Z,-1.68
2022-12-11T09:56:42.779Z,-1.69
2022-12-11T09:59:23.981Z,-1.20
2022-12-11T10:02:00.687Z,-1.59
2022-12-11T10:04:55.418Z,-1.12
2022-12-11T10:07:22.063Z,-0.97
2022-12-11T10:09:49.097Z,-0.97
2022-12-11T10:12:30.021Z,-0.91
2022-12-11T10:15:17.536Z,-0.88
2022-12-11T10:17:44.766Z,-1.20
2022-12-11T10:20:31.198Z,-1.50
2022-12-11T10:22:59.197Z,-1.88
2022-12-11T10:25:31.234Z,-1.06
2022-12-11T10:27:58.297Z,-1.03
2022-12-11T10:30:32.941Z,-1.45
2022-12-11T10:33:27.136Z,-1.05
2022-12-11T10:35:56.943Z,-1.30
2022-12-11T10:38:32.425Z,-1.26
2022-12-11T10:41:02.634Z,-0.92
2022-12-11T10:43:46.627Z,-1.69
2022-12-11T10:46:23.438Z,-1.54
2022-12-11T10:48:53.377Z,-0.91
2022-12-11T10:51:31.275Z,-0.92
2022-12-11T10:54:17.127Z,-1.05
2022-12-11T10:56:48.285Z,-1.11
2022-12-11T10:59:30.072Z,-1.45
2022-12-11T11:01:57.916Z,-1.59
2022-12-11T11:04:31.790Z,-0.94
2022-12-11T11:07:04.577Z,-0.94
2022-12-11T11:09:37.860Z,-2.70
2022-12-11T11:12:08.033Z,-1.12
2022-12-11T11:14:35.067Z,-1.60
2022-12-11T11:17:01.810Z,-2.96
2022-12-11T11:19:34.821Z,-1.16
2022-12-11T11:22:14.845Z,-1.24
2022-12-11T11:24:45.685Z,-1.25
2022-12-11T11:27:24.518Z,-1.70
2022-12-11T11:29:58.142Z,-1.34
2022-12-11T11:32:38.694Z,-1.55
2022-12-11T11:35:14.375Z,-1.45
2022-12-11T11:37:44.994Z,-1.47
2022-12-11T11:40:15.232Z,-1.54
2022-12-11T11:43:20.964Z,-1.75
2022-12-11T11:45:59.471Z,-2.31
2022-12-11T11:48:38.322Z,-1.46
2022-12-11T11:51:17.023Z,-1.40
2022-12-11T11:53:49.678Z,-1.42
2022-12-11T11:56:25.467Z,-1.25
2022-12-11T11:59:02.250Z,-1.33
2022-12-11T12:01:30.206Z,-1.40
2022-12-11T12:03:57.596Z,-1.83
2022-12-11T12:06:34.242Z,-1.37
2022-12-11T12:09:15.632Z,-2.35
2022-12-11T12:12:07.250Z,-1.38
2022-12-11T12:14:51.974Z,-1.32
2022-12-11T12:17:43.381Z,-1.41
2022-12-11T12:20:35.221Z,-2.39
2022-12-11T12:23:23.923Z,-1.54
2022-12-11T12:26:02.548Z,-1.46
2022-12-11T12:28:37.324Z,-2.77
2022-12-11T12:31:20.232Z,-1.57
2022-12-11T12:34:16.466Z,-1.87
2022-12-11T12:37:20.684Z,-1.52
2022-12-11T12:40:13.178Z,-1.58
2022-12-11T12:43:00.895Z,-3.32
2022-12-11T12:45:44.255Z,-1.69
2022-12-11T12:48:10.960Z,-1.88
2022-12-11T12:50:42.751Z,-1.68
2022-12-11T12:53:15.990Z,-2.42
2022-12-11T12:55:44.009Z,-1.75
2022-12-11T12:58:34.938Z,-1.70
2022-12-11T13:01:08.907Z,-1.71
2022-12-11T13:03:49.425Z,-1.77
2022-12-11T13:06:16.366Z,-2.04
2022-12-11T13:08:47.323Z,-1.82
2022-12-11T13:11:17.572Z,-1.92
2022-12-11T13:13:54.855Z,-2.50
2022-12-11T13:16:27.047Z,-2.09
2022-12-11T13:18:54.754Z,-2.23
2022-12-11T13:21:38.219Z,-1.94
2022-12-11T13:24:34.318Z,-1.81
2022-12-11T13:27:22.187Z,-1.35
2022-12-11T13:29:49.197Z,-1.54
2022-12-11T13:32:16.223Z,-1.42
2022-12-11T13:34:47.155Z,-1.53
2022-12-11T13:37:39.648Z,-1.54
2022-12-11T13:40:15.409Z,-1.81
2022-12-11T13:42:57.421Z,-1.42
2022-12-11T13:45:29.638Z,-1.41
2022-12-11T13:47:59.985Z,-1.55
2022-12-11T13:50:33.123Z,-2.22
2022-12-11T13:53:03.442Z,-1.70
2022-12-11T13:55:33.013Z,-1.44
2022-12-11T13:58:00.847Z,-2.36
2022-12-11T14:00:32.901Z,-2.16
2022-12-11T14:03:04.753Z,-1.48
2022-12-11T14:05:31.839Z,-2.39
2022-12-11T14:08:02.654Z,-1.46
2022-12-11T14:10:33.130Z,-1.71
2022-12-11T14:13:06.307Z,-1.32
2022-12-11T14:15:36.007Z,-2.63
2022-12-11T14:18:05.265Z,-1.35
2022-12-11T14:20:37.167Z,-1.64
2022-12-11T14:23:09.507Z,-1.15
2022-12-11T14:25:36.215Z,-1.39
2022-12-11T14:28:03.772Z,-1.20
2022-12-11T14:30:35.803Z,-1.36
2022-12-11T14:33:05.569Z,-1.56
2022-12-11T14:35:39.130Z,-1.60
2022-12-11T14:38:14.577Z,-1.08
2022-12-11T14:40:45.480Z,-1.21
2022-12-11T14:43:19.778Z,-1.72
2022-12-11T14:45:50.212Z,-0.98
2022-12-11T14:48:23.410Z,-0.85
2022-12-11T14:50:53.564Z,-0.84
2022-12-11T14:53:35.612Z,-0.80
2022-12-11T14:56:06.938Z,-1.33
2022-12-11T14:58:41.264Z,-0.90
2022-12-11T15:01:22.863Z,-0.71
2022-12-11T15:03:49.640Z,-0.77
2022-12-11T15:06:30.133Z,-1.67
2022-12-11T15:08:57.249Z,-0.33
2022-12-11T15:11:30.097Z,-0.26
2022-12-11T15:13:59.397Z,-0.35
2022-12-11T15:16:29.428Z,-1.15
2022-12-11T15:18:59.035Z,-1.06
2022-12-11T15:21:31.732Z,-0.33
2022-12-11T15:24:00.925Z,-0.25
2022-12-11T15:26:45.014Z,-0.27
2022-12-11T15:29:31.018Z,-0.40
2022-12-11T15:32:09.968Z,-0.17
2022-12-11T15:34:52.187Z,-0.50
2022-12-11T15:37:40.049Z,-0.37
2022-12-11T15:40:07.874Z,-0.22
2022-12-11T15:42:36.725Z,-0.25
2022-12-11T15:45:06.782Z,-0.69
2022-12-11T15:47:33.645Z,-0.17
2022-12-11T15:50:03.033Z,-0.51
2022-12-11T15:52:29.886Z,-0.16
2022-12-11T15:54:57.611Z,-0.15
2022-12-11T15:57:24.898Z,-0.37
2022-12-11T15:59:54.224Z,-0.37
2022-12-11T16:02:21.123Z,-1.94
2022-12-11T16:04:47.859Z,-0.29
2022-12-11T16:07:25.688Z,-0.71
2022-12-11T16:09:52.746Z,-0.79
2022-12-11T16:12:19.471Z,-1.57
2022-12-11T16:14:47.001Z,-0.05
2022-12-11T16:17:15.384Z,-0.44
2022-12-11T16:19:43.601Z,-0.14
2022-12-11T16:22:12.311Z,-0.11
2022-12-11T16:24:39.663Z,-0.24
2022-12-11T16:27:09.556Z,0.02
2022-12-11T16:29:37.777Z,0.11
2022-12-11T16:32:07.095Z,0.16
2022-12-11T16:34:35.132Z,0.16
2022-12-11T16:37:03.645Z,0.15
2022-12-11T16:39:30.612Z,-0.36
2022-12-11T16:41:57.317Z,-0.35
2022-12-11T16:44:25.907Z,-0.70
2022-12-11T16:46:53.745Z,0.17
2022-12-11T16:49:22.953Z,-0.12
2022-12-11T16:51:53.727Z,0.04
2022-12-11T16:54:21.805Z,-1.26
2022-12-11T16:56:48.458Z,0.17
2022-12-11T16:59:15.100Z,0.12
2022-12-11T17:01:41.831Z,-0.89
2022-12-11T17:04:08.761Z,-0.07
2022-12-11T17:06:35.442Z,-0.58
2022-12-11T17:09:02.203Z,0.22
2022-12-11T17:11:28.907Z,0.30
2022-12-11T17:13:57.439Z,-0.37
2022-12-11T17:16:26.556Z,0.41
2022-12-11T17:18:54.563Z,0.07
2022-12-11T17:21:22.413Z,0.55
2022-12-11T17:23:50.065Z,0.35
2022-12-11T17:26:17.352Z,0.31
2022-12-11T17:28:45.206Z,0.43
2022-12-11T17:31:18.208Z,0.35
2022-12-11T17:33:46.133Z,-0.82
2022-12-11T17:36:19.795Z,0.37
2022-12-11T17:38:47.381Z,0.18
2022-12-11T17:41:20.381Z,0.17
2022-12-11T17:43:48.970Z,0.18
2022-12-11T17:46:15.801Z,0.44
2022-12-11T17:48:43.047Z,0.25
2022-12-11T17:51:12.812Z,-0.20
2022-12-11T17:53:40.153Z,-0.51
2022-12-11T17:56:09.466Z,0.49
2022-12-11T17:58:36.099Z,0.53
2022-12-11T18:01:09.361Z,-0.16
2022-12-11T18:03:38.225Z,0.54
2022-12-11T18:06:11.412Z,0.62
2022-12-11T18:08:38.838Z,0.69
2022-12-11T18:11:13.135Z,0.50
2022-12-11T18:13:40.160Z,0.62
2022-12-11T18:16:14.182Z,0.65
2022-12-11T18:18:40.952Z,0.24
2022-12-11T18:21:08.826Z,0.78
2022-12-11T18:23:35.476Z,-0.39
2022-12-11T18:26:02.274Z,0.84
2022-12-11T18:28:31.705Z,0.17
2022-12-11T18:31:02.659Z,0.85
2022-12-11T18:33:30.654Z,0.90
2022-12-11T18:35:57.279Z,0.84
2022-12-11T18:38:23.991Z,0.30
2022-12-11T18:40:50.620Z,0.59
2022-12-11T18:43:17.247Z,0.16
2022-12-11T18:45:47.021Z,1.08
2022-12-11T18:48:14.971Z,-0.04
2022-12-11T18:50:46.183Z,0.98
2022-12-11T18:53:13.239Z,0.67
2022-12-11T18:55:48.866Z,0.94
2022-12-11T18:58:19.068Z,1.07
2022-12-11T19:00:47.058Z,0.15
2022-12-11T19:03:14.198Z,0.91
2022-12-11T19:05:44.894Z,0.56
2022-12-11T19:08:13.902Z,0.98
2022-12-11T19:10:45.891Z,0.89
2022-12-11T19:13:13.570Z,1.21
2022-12-11T19:15:44.313Z,0.62
2022-12-11T19:18:11.368Z,1.22
2022-12-11T19:21:03.288Z,1.17
2022-12-11T19:23:27.388Z,0.99
2022-12-11T19:25:54.712Z,1.31
2022-12-11T19:28:23.754Z,0.42
2022-12-11T19:30:50.731Z,1.22
2022-12-11T19:33:17.533Z,0.78
2022-12-11T19:35:44.600Z,1.57
2022-12-11T19:38:12.823Z,0.66
2022-12-11T19:40:44.268Z,1.32
2022-12-11T19:43:11.495Z,1.69
2022-12-11T19:45:38.348Z,1.70
2022-12-11T19:48:05.707Z,1.69
2022-12-11T19:50:35.373Z,1.53
2022-12-11T19:53:03.004Z,0.97
2022-12-11T19:55:29.856Z,0.87
2022-12-11T19:57:56.917Z,1.04
2022-12-11T20:00:24.582Z,1.10
2022-12-11T20:02:51.721Z,1.75
2022-12-11T20:05:18.575Z,1.24
2022-12-11T20:07:45.369Z,0.94
2022-12-11T20:10:12.535Z,1.39
2022-12-11T20:12:39.145Z,1.62
2022-12-11T20:15:06.250Z,1.88
2022-12-11T20:17:33.374Z,1.39
2022-12-11T20:20:00.244Z,1.82
2022-12-11T20:22:26.832Z,0.86
2022-12-11T20:24:53.454Z,1.67
2022-12-11T20:27:20.045Z,1.73
2022-12-11T20:29:46.596Z,1.95
2022-12-11T20:32:13.339Z,1.96
2022-12-11T20:34:40.245Z,1.98
2022-12-11T20:37:07.739Z,1.77
2022-12-11T20:39:35.584Z,1.94
2022-12-11T20:42:04.752Z,1.94
2022-12-11T20:44:32.116Z,1.37
2022-12-11T20:46:58.879Z,0.98
2022-12-11T20:49:26.296Z,1.87
2022-12-11T20:51:53.093Z,1.76
2022-12-11T20:54:19.829Z,1.19
2022-12-11T20:56:46.692Z,1.87
2022-12-11T20:59:13.473Z,1.37
2022-12-11T21:01:40.345Z,1.90
2022-12-11T21:04:07.039Z,1.73
2022-12-11T21:06:36.030Z,1.30
2022-12-11T21:09:13.957Z,1.57
2022-12-11T21:11:40.723Z,0.17
2022-12-11T21:14:07.439Z,1.81
2022-12-11T21:16:36.620Z,1.76
2022-12-11T21:19:04.893Z,1.79
2022-12-11T21:21:33.269Z,1.78
2022-12-11T21:23:59.870Z,1.80
2022-12-11T21:26:26.458Z,1.60
2022-12-11T21:28:53.327Z,1.83
2022-12-11T21:31:20.147Z,1.20
2022-12-11T21:33:48.168Z,1.17
2022-12-11T21:36:15.434Z,1.87
2022-12-11T21:38:44.158Z,1.68
2022-12-11T21:41:16.882Z,1.82
2022-12-11T21:44:32.918Z,0.96
2022-12-11T21:46:31.839Z,1.83
2022-12-11T21:48:59.666Z,1.86
2022-12-11T21:51:34.355Z,1.84
2022-12-11T21:54:06.381Z,1.86
2022-12-11T21:56:33.032Z,1.19
2022-12-11T21:59:01.418Z,1.22
2022-12-11T22:01:32.278Z,1.88
2022-12-11T22:03:59.564Z,1.62
2022-12-11T22:06:26.486Z,0.86
2022-12-11T22:08:56.156Z,1.83
2022-12-11T22:11:30.179Z,1.81
2022-12-11T22:13:57.386Z,1.66
2022-12-11T22:16:24.316Z,1.37
2022-12-11T22:18:51.147Z,1.75
2022-12-11T22:21:17.967Z,1.59
2022-12-11T22:23:45.093Z,1.20
2022-12-11T22:26:17.803Z,0.60
2022-12-11T22:28:44.490Z,1.45
2022-12-11T22:31:12.646Z,1.92
2022-12-11T22:33:39.671Z,1.37
2022-12-11T22:36:06.820Z,1.76
2022-12-11T22:38:34.804Z,1.90
2022-12-11T22:41:03.037Z,1.83
2022-12-11T22:43:29.741Z,1.27
2022-12-11T22:45:56.438Z,1.01
2022-12-11T22:48:27.268Z,1.46
2022-12-11T22:50:54.589Z,1.46
2022-12-11T22:53:21.715Z,1.76
2022-12-11T22:55:48.366Z,1.76
2022-12-11T22:58:21.432Z,1.37
2022-12-11T23:00:48.624Z,1.46
2022-12-11T23:03:15.438Z,0.31
2022-12-11T23:05:43.248Z,1.66
2022-12-11T23:08:09.960Z,1.79
2022-12-11T23:10:40.379Z,1.80
2022-12-11T23:13:07.038Z,1.19
2022-12-11T23:15:33.728Z,1.08
2022-12-11T23:18:00.305Z,0.49
2022-12-11T23:20:27.466Z,1.14
2022-12-11T23:22:54.049Z,0.85
2022-12-11T23:25:20.722Z,0.70
2022-12-11T23:27:47.395Z,0.62
2022-12-11T23:30:14.112Z,-0.40
2022-12-11T23:32:40.753Z,0.55
2022-12-11T23:35:07.815Z,-0.04
2022-12-11T23:37:34.474Z,0.46
2022-12-11T23:40:01.255Z,0.01
2022-12-11T23:42:27.861Z,-1.05
2022-12-11T23:44:54.542Z,0.21
2022-12-11T23:47:21.190Z,-0.24
2022-12-11T23:49:47.793Z,0.12
2022-12-11T23:52:14.388Z,0.19
2022-12-11T23:54:41.012Z,0.14
2022-12-11T23:57:07.622Z,-0.79
2022-12-11T23:59:34.375Z,-0.43
